createdAt,value
2018-11-27T00:01:00.979Z,51.00
2018-11-27T00:02:34.922Z,50.15
2018-11-27T00:04:08.870Z,57.88
2018-11-27T00:05:42.878Z,56.88
2018-11-27T00:07:16.811Z,52.62
2018-11-27T00:08:57.537Z,52.67
2018-11-27T00:10:32.850Z,47.70
2018-11-27T00:12:06.883Z,52.38
2018-11-27T00:13:40.839Z,52.55
2018-11-27T00:15:14.851Z,52.93
2018-11-27T00:16:48.838Z,52.95
2018-11-27T00:18:22.812Z,51.15
2018-11-27T00:19:57.212Z,49.40
2018-11-27T00:21:31.181Z,47.45
2018-11-27T00:23:05.182Z,51.70
2018-11-27T00:24:39.151Z,51.58
2018-11-27T00:26:13.176Z,45.80
2018-11-27T00:27:47.150Z,50.63
2018-11-27T00:29:21.109Z,50.75
2018-11-27T00:30:55.074Z,49.35
2018-11-27T00:32:29.130Z,52.15
2018-11-27T00:34:03.103Z,52.13
2018-11-27T00:35:43.746Z,49.30
2018-11-27T00:37:17.733Z,46.35
2018-11-27T00:38:51.750Z,45.00
2018-11-27T00:40:25.685Z,55.70
2018-11-27T00:41:59.746Z,48.17
2018-11-27T00:43:39.354Z,42.03
2018-11-27T00:45:17.474Z,47.43
2018-11-27T00:46:51.470Z,43.60
2018-11-27T00:48:25.430Z,46.02
2018-11-27T00:49:59.402Z,48.13
2018-11-27T00:51:33.421Z,48.55
2018-11-27T00:53:07.365Z,44.70
2018-11-27T00:54:41.333Z,44.73
2018-11-27T00:56:15.253Z,44.65
2018-11-27T00:57:51.458Z,43.45
2018-11-27T00:59:25.426Z,42.48
2018-11-27T01:00:59.365Z,43.50
2018-11-27T01:02:33.310Z,40.80
2018-11-27T01:04:07.385Z,45.73
2018-11-27T01:05:41.482Z,42.50
2018-11-27T01:07:15.410Z,42.60
2018-11-27T01:08:49.346Z,41.20
2018-11-27T01:10:27.145Z,42.75
2018-11-27T01:12:01.158Z,40.73
2018-11-27T01:13:35.189Z,39.00
2018-11-27T01:15:10.732Z,40.40
2018-11-27T01:16:44.708Z,40.05
2018-11-27T01:18:18.681Z,43.80
2018-11-27T01:19:52.761Z,41.13
2018-11-27T01:21:26.686Z,40.28
2018-11-27T01:23:00.649Z,40.17
2018-11-27T01:24:34.590Z,38.92
2018-11-27T01:26:08.597Z,37.35
2018-11-27T01:27:43.172Z,37.93
2018-11-27T01:29:17.138Z,38.55
2018-11-27T01:30:51.166Z,37.75
2018-11-27T01:32:25.118Z,38.73
2018-11-27T01:33:59.082Z,37.88
2018-11-27T01:35:33.131Z,37.20
2018-11-27T01:37:07.154Z,37.50
2018-11-27T01:38:41.090Z,38.02
2018-11-27T01:40:19.223Z,34.78
2018-11-27T01:41:53.183Z,36.10
2018-11-27T01:43:27.808Z,36.30
2018-11-27T01:45:01.239Z,37.25
2018-11-27T01:46:35.189Z,33.70
2018-11-27T01:48:09.214Z,34.27
2018-11-27T01:49:43.170Z,37.08
2018-11-27T01:51:17.114Z,33.90
2018-11-27T01:52:51.118Z,37.83
2018-11-27T01:54:25.134Z,42.48
2018-11-27T01:55:59.091Z,35.88
2018-11-27T01:57:33.046Z,37.23
2018-11-27T01:59:06.997Z,40.25
2018-11-27T02:00:41.002Z,38.98
2018-11-27T02:02:14.906Z,38.08
2018-11-27T02:03:48.846Z,37.93
2018-11-27T02:05:23.425Z,38.70
2018-11-27T02:06:57.350Z,37.28
2018-11-27T02:08:31.289Z,30.17
2018-11-27T02:10:08.922Z,29.77
2018-11-27T02:11:42.949Z,31.45
2018-11-27T02:13:16.930Z,32.60
2018-11-27T02:14:50.880Z,32.78
2018-11-27T02:16:24.867Z,31.60
2018-11-27T02:17:58.896Z,35.68
2018-11-27T02:19:32.838Z,32.65
2018-11-27T02:21:07.138Z,33.53
2018-11-27T02:22:41.310Z,31.82
2018-11-27T02:24:15.329Z,34.10
2018-11-27T02:25:49.250Z,33.13
2018-11-27T02:27:23.198Z,36.25
2018-11-27T02:28:57.219Z,35.95
2018-11-27T02:30:31.235Z,34.30
2018-11-27T02:32:05.180Z,37.33
2018-11-27T02:33:39.115Z,36.33
2018-11-27T02:35:14.997Z,37.58
2018-11-27T02:36:49.042Z,35.13
2018-11-27T02:38:23.020Z,36.93
2018-11-27T02:39:56.929Z,35.88
2018-11-27T02:41:30.895Z,39.55
2018-11-27T02:43:05.026Z,39.05
2018-11-27T02:44:38.966Z,42.83
2018-11-27T02:46:12.899Z,39.95
2018-11-27T02:47:47.515Z,45.58
2018-11-27T02:49:21.563Z,43.40
2018-11-27T02:50:55.490Z,44.93
2018-11-27T02:52:30.054Z,40.95
2018-11-27T02:54:04.058Z,42.05
2018-11-27T02:55:38.469Z,43.48
2018-11-27T02:57:12.397Z,44.53
2018-11-27T02:58:46.314Z,41.35
2018-11-27T03:00:22.412Z,45.00
2018-11-27T03:01:56.381Z,46.83
2018-11-27T03:03:30.339Z,48.50
2018-11-27T03:05:04.282Z,41.68
2018-11-27T03:06:38.211Z,42.50
2018-11-27T03:08:12.545Z,42.15
2018-11-27T03:09:46.476Z,42.62
2018-11-27T03:11:20.429Z,44.15
2018-11-27T03:12:54.373Z,42.88
2018-11-27T03:14:28.342Z,46.53
2018-11-27T03:16:02.304Z,51.70
2018-11-27T03:17:36.249Z,50.67
2018-11-27T03:19:10.189Z,54.10
2018-11-27T03:20:44.229Z,49.53
2018-11-27T03:22:18.163Z,52.17
2018-11-27T03:23:52.098Z,47.67
2018-11-27T03:25:26.493Z,52.70
2018-11-27T03:27:00.442Z,49.98
2018-11-27T03:28:34.386Z,51.48
2018-11-27T03:30:16.503Z,48.28
2018-11-27T03:31:50.535Z,47.67
2018-11-27T03:33:24.452Z,46.20
2018-11-27T03:34:58.393Z,47.78
2018-11-27T03:36:32.350Z,47.58
2018-11-27T03:38:06.533Z,45.20
2018-11-27T03:39:40.562Z,43.25
2018-11-27T03:41:14.514Z,48.42
2018-11-27T03:42:48.511Z,48.75
2018-11-27T03:44:23.343Z,47.00
2018-11-27T03:45:57.295Z,48.23
2018-11-27T03:47:31.299Z,49.73
2018-11-27T03:49:05.292Z,49.18
2018-11-27T03:50:39.305Z,47.15
2018-11-27T03:52:13.276Z,50.50
2018-11-27T03:53:47.274Z,46.05
2018-11-27T03:55:21.193Z,48.38
2018-11-27T03:56:55.202Z,52.27
2018-11-27T03:58:29.148Z,50.48
2018-11-27T04:00:03.210Z,49.38
2018-11-27T04:01:37.223Z,51.75
2018-11-27T04:03:12.653Z,52.75
2018-11-27T04:04:46.601Z,50.00
2018-11-27T04:06:20.566Z,52.30
2018-11-27T04:07:54.491Z,54.98
2018-11-27T04:09:28.550Z,51.85
2018-11-27T04:11:02.534Z,48.58
2018-11-27T04:12:36.482Z,53.38
2018-11-27T04:14:10.419Z,50.70
2018-11-27T04:15:44.414Z,47.13
2018-11-27T04:17:20.983Z,47.15
2018-11-27T04:18:55.107Z,49.65
2018-11-27T04:20:29.687Z,50.03
2018-11-27T04:22:03.900Z,48.35
2018-11-27T04:23:37.862Z,46.23
2018-11-27T04:25:13.005Z,45.83
2018-11-27T04:26:46.945Z,47.75
2018-11-27T04:28:20.874Z,45.55
2018-11-27T04:29:54.831Z,48.25
2018-11-27T04:31:29.187Z,49.15
2018-11-27T04:33:03.121Z,48.85
2018-11-27T04:34:37.084Z,46.00
2018-11-27T04:36:10.980Z,51.73
2018-11-27T04:37:45.407Z,45.05
2018-11-27T04:39:19.327Z,40.75
2018-11-27T04:40:53.286Z,40.90
2018-11-27T04:42:27.231Z,44.20
2018-11-27T04:44:01.242Z,43.02
2018-11-27T04:45:35.210Z,43.20
2018-11-27T04:47:09.139Z,42.90
2018-11-27T04:48:43.137Z,39.95
2018-11-27T04:50:18.609Z,42.93
2018-11-27T04:51:52.570Z,43.48
2018-11-27T04:53:26.553Z,44.75
2018-11-27T04:55:00.887Z,46.20
2018-11-27T04:56:34.935Z,43.25
2018-11-27T04:58:08.869Z,41.75
2018-11-27T04:59:42.822Z,40.63
2018-11-27T05:01:16.830Z,43.80
2018-11-27T05:02:50.755Z,44.73
2018-11-27T05:04:24.668Z,42.70
2018-11-27T05:05:58.629Z,40.95
2018-11-27T05:07:32.606Z,42.75
2018-11-27T05:09:10.274Z,41.83
2018-11-27T05:10:44.189Z,42.80
2018-11-27T05:12:18.127Z,42.55
2018-11-27T05:13:52.131Z,39.08
2018-11-27T05:15:26.875Z,41.35
2018-11-27T05:17:00.849Z,40.90
2018-11-27T05:18:34.843Z,41.65
2018-11-27T05:20:09.954Z,44.05
2018-11-27T05:21:43.910Z,41.53
2018-11-27T05:23:17.942Z,43.45
2018-11-27T05:24:51.919Z,38.95
2018-11-27T05:26:25.860Z,39.98
2018-11-27T05:27:59.770Z,40.90
2018-11-27T05:29:33.761Z,39.18
2018-11-27T05:31:07.717Z,40.38
2018-11-27T05:32:41.650Z,38.17
2018-11-27T05:34:15.581Z,45.63
2018-11-27T05:35:49.558Z,41.48
2018-11-27T05:37:23.554Z,39.92
2018-11-27T05:38:57.498Z,43.10
2018-11-27T05:40:31.410Z,40.23
2018-11-27T05:42:05.590Z,46.42
2018-11-27T05:43:39.913Z,41.48
2018-11-27T05:45:18.008Z,43.73
2018-11-27T05:46:51.937Z,42.62
2018-11-27T05:48:25.885Z,41.83
2018-11-27T05:50:00.137Z,46.15
2018-11-27T05:51:34.086Z,41.40
2018-11-27T05:53:08.005Z,42.17
2018-11-27T05:54:41.929Z,41.40
2018-11-27T05:56:15.911Z,41.02
2018-11-27T05:57:51.469Z,41.05
2018-11-27T05:59:25.390Z,42.80
2018-11-27T06:00:59.429Z,40.48
2018-11-27T06:02:33.379Z,44.00
2018-11-27T06:04:07.301Z,38.67
2018-11-27T06:05:47.594Z,39.40
2018-11-27T06:07:21.580Z,43.50
2018-11-27T06:08:56.970Z,41.83
2018-11-27T06:10:29.879Z,47.35
2018-11-27T06:12:03.811Z,44.80
2018-11-27T06:13:37.749Z,41.58
2018-11-27T06:15:13.662Z,44.10
2018-11-27T06:16:47.682Z,45.92
2018-11-27T06:18:21.670Z,42.35
2018-11-27T06:19:55.665Z,42.88
2018-11-27T06:21:29.608Z,39.40
2018-11-27T06:23:03.544Z,46.08
2018-11-27T06:24:37.497Z,46.45
2018-11-27T06:26:11.533Z,41.13
2018-11-27T06:27:45.937Z,45.10
2018-11-27T06:29:19.899Z,42.45
2018-11-27T06:30:53.874Z,46.80
2018-11-27T06:32:27.881Z,45.98
2018-11-27T06:34:01.842Z,43.65
2018-11-27T06:35:37.577Z,43.68
2018-11-27T06:37:11.490Z,45.38
2018-11-27T06:38:45.478Z,42.35
2018-11-27T06:40:20.716Z,44.45
2018-11-27T06:41:54.674Z,45.08
2018-11-27T06:43:28.620Z,45.33
2018-11-27T06:45:02.655Z,40.75
2018-11-27T06:46:36.614Z,44.33
2018-11-27T06:48:10.665Z,43.60
2018-11-27T06:49:44.661Z,45.43
2018-11-27T06:51:18.685Z,45.03
2018-11-27T06:52:52.679Z,42.05
2018-11-27T06:54:26.642Z,42.88
2018-11-27T06:56:00.617Z,41.23
2018-11-27T06:57:34.689Z,45.48
2018-11-27T06:59:08.721Z,46.88
2018-11-27T07:00:42.673Z,42.62
2018-11-27T07:02:16.649Z,48.68
2018-11-27T07:03:50.705Z,44.13
2018-11-27T07:05:24.743Z,45.25
2018-11-27T07:06:58.817Z,47.62
2018-11-27T07:08:32.769Z,47.40
2018-11-27T07:10:26.982Z,47.00
2018-11-27T07:12:00.970Z,50.30
2018-11-27T07:13:34.960Z,53.20
2018-11-27T07:15:12.002Z,47.20
2018-11-27T07:16:54.550Z,51.02
2018-11-27T07:18:28.518Z,51.70
2018-11-27T07:20:02.498Z,52.15
2018-11-27T07:21:36.614Z,50.00
2018-11-27T07:23:10.618Z,55.70
2018-11-27T07:24:44.577Z,51.53
2018-11-27T07:26:18.576Z,47.90
2018-11-27T07:27:52.858Z,51.35
2018-11-27T07:29:26.803Z,51.68
2018-11-27T07:31:00.818Z,51.90
2018-11-27T07:32:34.829Z,51.68
2018-11-27T07:34:08.857Z,49.18
2018-11-27T07:35:42.811Z,48.95
2018-11-27T07:37:16.804Z,49.70
2018-11-27T07:38:50.849Z,59.98
2018-11-27T07:40:26.359Z,53.02
2018-11-27T07:42:00.342Z,51.45
2018-11-27T07:43:40.937Z,49.60
2018-11-27T07:45:16.782Z,51.28
2018-11-27T07:46:50.756Z,52.15
2018-11-27T07:48:24.758Z,50.58
2018-11-27T07:49:58.757Z,51.63
2018-11-27T07:51:32.807Z,51.58
2018-11-27T07:53:13.331Z,52.90
2018-11-27T07:54:47.277Z,51.68
2018-11-27T07:56:21.246Z,51.55
2018-11-27T07:57:55.814Z,53.28
2018-11-27T07:59:29.737Z,52.78
2018-11-27T08:01:03.663Z,56.20
2018-11-27T08:02:37.594Z,57.43
2018-11-27T08:04:11.594Z,56.18
2018-11-27T08:05:45.546Z,56.83
2018-11-27T08:07:19.494Z,56.42
2018-11-27T08:08:53.477Z,53.30
2018-11-27T08:10:28.596Z,53.40
2018-11-27T08:12:02.537Z,51.88
2018-11-27T08:13:37.368Z,55.00
2018-11-27T08:15:16.560Z,60.05
2018-11-27T08:16:50.579Z,50.95
2018-11-27T08:18:24.525Z,50.67
2018-11-27T08:19:58.472Z,54.55
2018-11-27T08:21:32.423Z,55.98
2018-11-27T08:23:07.586Z,51.23
2018-11-27T08:24:47.874Z,55.58
2018-11-27T08:26:21.812Z,56.48
2018-11-27T08:27:55.772Z,56.83
2018-11-27T08:29:29.782Z,52.10
2018-11-27T08:31:03.721Z,57.53
2018-11-27T08:32:37.671Z,57.53
2018-11-27T08:34:11.585Z,52.93
2018-11-27T08:35:45.605Z,49.85
2018-11-27T08:37:19.570Z,50.90
2018-11-27T08:38:53.541Z,51.25
2018-11-27T08:40:29.627Z,54.40
2018-11-27T08:42:10.122Z,54.18
2018-11-27T08:43:44.046Z,49.23
2018-11-27T08:45:19.046Z,51.00
2018-11-27T08:46:52.959Z,50.17
2018-11-27T08:48:26.974Z,48.52
2018-11-27T08:50:00.927Z,46.98
2018-11-27T08:51:34.879Z,46.85
2018-11-27T08:53:08.805Z,51.68
2018-11-27T08:54:42.834Z,48.73
2018-11-27T08:56:16.776Z,48.35
2018-11-27T08:57:50.970Z,48.23
2018-11-27T08:59:24.902Z,45.03
2018-11-27T09:00:58.882Z,47.43
2018-11-27T09:02:32.848Z,46.77
2018-11-27T09:04:06.755Z,47.95
2018-11-27T09:05:40.703Z,48.90
2018-11-27T09:07:14.669Z,49.73
2018-11-27T09:08:48.655Z,44.23
2018-11-27T09:10:24.902Z,48.00
2018-11-27T09:11:58.842Z,46.33
2018-11-27T09:13:32.885Z,44.73
2018-11-27T09:15:07.834Z,46.05
2018-11-27T09:16:41.862Z,45.78
2018-11-27T09:18:20.166Z,46.02
2018-11-27T09:19:54.111Z,48.70
2018-11-27T09:21:28.069Z,45.38
2018-11-27T09:23:02.063Z,45.65
2018-11-27T09:24:35.977Z,48.30
2018-11-27T09:26:09.993Z,42.03
2018-11-27T09:27:43.934Z,43.25
2018-11-27T09:29:17.926Z,45.88
2018-11-27T09:30:51.877Z,47.60
2018-11-27T09:32:26.795Z,44.25
2018-11-27T09:34:00.730Z,44.42
2018-11-27T09:35:34.763Z,45.88
2018-11-27T09:37:09.395Z,44.63
2018-11-27T09:38:43.378Z,45.88
2018-11-27T09:40:18.734Z,51.65
2018-11-27T09:41:52.717Z,46.02
2018-11-27T09:43:26.638Z,43.28
2018-11-27T09:45:00.567Z,43.83
2018-11-27T09:46:34.662Z,46.25
2018-11-27T09:48:08.659Z,45.85
2018-11-27T09:49:42.582Z,45.58
2018-11-27T09:51:16.546Z,42.13
2018-11-27T09:52:50.504Z,43.30
2018-11-27T09:54:24.533Z,41.20
2018-11-27T09:55:58.479Z,44.25
2018-11-27T09:57:32.419Z,41.60
2018-11-27T09:59:06.446Z,46.20
2018-11-27T10:00:40.450Z,46.25
2018-11-27T10:02:14.415Z,42.73
2018-11-27T10:03:48.361Z,44.93
2018-11-27T10:05:22.299Z,40.12
2018-11-27T10:06:56.290Z,42.62
2018-11-27T10:08:30.207Z,41.08
2018-11-27T10:10:04.666Z,42.33
2018-11-27T10:11:38.678Z,41.70
2018-11-27T10:13:12.615Z,42.60
2018-11-27T10:14:49.423Z,42.55
2018-11-27T10:16:23.359Z,47.73
2018-11-27T10:17:58.466Z,42.95
2018-11-27T10:19:32.414Z,44.05
2018-11-27T10:21:06.445Z,42.62
2018-11-27T10:22:40.415Z,40.90
2018-11-27T10:24:14.427Z,37.88
2018-11-27T10:25:48.374Z,42.27
2018-11-27T10:27:22.338Z,43.83
2018-11-27T10:28:56.326Z,40.43
2018-11-27T10:30:30.366Z,41.18
2018-11-27T10:32:04.321Z,40.75
2018-11-27T10:33:39.265Z,50.48
2018-11-27T10:35:20.664Z,42.93
2018-11-27T10:36:54.652Z,39.98
2018-11-27T10:38:28.626Z,47.27
2018-11-27T10:40:02.745Z,44.10
2018-11-27T10:41:36.809Z,41.85
2018-11-27T10:43:10.813Z,42.50
2018-11-27T10:44:44.829Z,40.80
2018-11-27T10:46:18.798Z,42.60
2018-11-27T10:47:53.862Z,42.45
2018-11-27T10:49:27.865Z,40.45
2018-11-27T10:51:01.777Z,42.98
2018-11-27T10:52:35.672Z,44.38
2018-11-27T10:54:09.629Z,36.45
2018-11-27T10:55:43.616Z,39.30
2018-11-27T10:57:17.559Z,37.50
2018-11-27T10:58:51.503Z,35.78
2018-11-27T11:00:31.418Z,41.00
2018-11-27T11:02:41.929Z,42.70
2018-11-27T11:04:15.849Z,40.58
2018-11-27T11:05:49.831Z,38.10
2018-11-27T11:07:23.787Z,40.35
2018-11-27T11:08:57.762Z,36.83
2018-11-27T11:10:31.818Z,39.38
2018-11-27T11:12:05.899Z,42.03
2018-11-27T11:13:39.850Z,37.75
2018-11-27T11:15:13.824Z,41.53
2018-11-27T11:16:47.786Z,37.70
2018-11-27T11:18:21.713Z,37.63
2018-11-27T11:19:55.637Z,35.65
2018-11-27T11:21:29.633Z,34.18
2018-11-27T11:23:03.604Z,36.98
2018-11-27T11:24:37.554Z,35.58
2018-11-27T11:26:11.546Z,34.08
2018-11-27T11:27:46.578Z,38.40
2018-11-27T11:29:20.524Z,39.15
2018-11-27T11:30:54.465Z,36.33
2018-11-27T11:32:28.406Z,37.15
2018-11-27T11:34:02.379Z,36.17
2018-11-27T11:35:36.315Z,37.40
2018-11-27T11:37:10.278Z,36.93
2018-11-27T11:38:44.211Z,35.00
2018-11-27T11:40:20.302Z,37.58
2018-11-27T11:41:54.222Z,39.40
2018-11-27T11:43:28.209Z,36.45
2018-11-27T11:45:02.137Z,35.17
2018-11-27T11:46:36.147Z,36.58
2018-11-27T11:48:10.093Z,36.90
2018-11-27T11:49:44.048Z,36.83
2018-11-27T11:51:17.978Z,37.45
2018-11-27T11:52:54.482Z,36.30
2018-11-27T11:54:28.429Z,39.18
2018-11-27T11:56:02.342Z,37.55
2018-11-27T11:57:36.313Z,36.50
2018-11-27T11:59:16.869Z,33.58
2018-11-27T12:00:53.221Z,37.42
2018-11-27T12:02:27.167Z,35.03
2018-11-27T12:04:01.140Z,35.48
2018-11-27T12:05:35.534Z,37.23
2018-11-27T12:07:09.486Z,35.43
2018-11-27T12:08:43.415Z,34.92
2018-11-27T12:10:17.730Z,36.40
2018-11-27T12:11:51.818Z,39.13
2018-11-27T12:13:25.784Z,38.38
2018-11-27T12:14:59.758Z,39.40
2018-11-27T12:16:33.686Z,39.45
2018-11-27T12:18:08.642Z,38.65
2018-11-27T12:19:42.635Z,40.33
2018-11-27T12:21:16.565Z,38.13
2018-11-27T12:22:52.398Z,39.30
2018-11-27T12:24:26.435Z,37.53
2018-11-27T12:26:00.399Z,41.35
2018-11-27T12:27:34.380Z,38.13
2018-11-27T12:29:08.326Z,36.60
2018-11-27T12:30:42.325Z,38.95
2018-11-27T12:32:16.258Z,40.48
2018-11-27T12:33:50.346Z,37.83
2018-11-27T12:35:24.733Z,35.10
2018-11-27T12:36:58.674Z,33.92
2018-11-27T12:38:32.631Z,33.53
2018-11-27T12:40:11.025Z,35.40
2018-11-27T12:41:45.020Z,38.23
2018-11-27T12:43:18.998Z,36.33
2018-11-27T12:44:53.085Z,36.63
2018-11-27T12:46:27.077Z,33.65
2018-11-27T12:48:02.327Z,34.73
2018-11-27T12:49:36.390Z,34.25
2018-11-27T12:51:10.859Z,34.98
2018-11-27T12:52:44.557Z,34.95
2018-11-27T12:54:18.595Z,33.67
2018-11-27T12:55:52.667Z,34.63
2018-11-27T12:57:26.684Z,34.40
2018-11-27T12:59:00.651Z,36.00
2018-11-27T13:00:34.735Z,35.68
2018-11-27T13:02:08.732Z,38.98
2018-11-27T13:03:42.731Z,39.00
2018-11-27T13:05:18.256Z,40.73
2018-11-27T13:06:52.291Z,37.83
2018-11-27T13:08:26.355Z,40.05
2018-11-27T13:10:00.337Z,39.90
2018-11-27T13:11:34.331Z,36.30
2018-11-27T13:13:08.378Z,38.42
2018-11-27T13:14:42.438Z,35.13
2018-11-27T13:16:16.447Z,36.90
2018-11-27T13:17:51.470Z,35.73
2018-11-27T13:19:25.420Z,37.33
2018-11-27T13:21:06.145Z,35.65
2018-11-27T13:22:40.408Z,36.83
2018-11-27T13:24:14.404Z,39.25
2018-11-27T13:25:48.361Z,38.85
2018-11-27T13:27:22.441Z,38.20
2018-11-27T13:28:56.482Z,36.23
2018-11-27T13:30:38.527Z,36.85
2018-11-27T13:32:17.965Z,36.77
2018-11-27T13:34:01.462Z,36.05
2018-11-27T13:35:35.494Z,40.08
2018-11-27T13:37:09.459Z,34.80
2018-11-27T13:38:43.556Z,34.63
2018-11-27T13:40:17.546Z,36.63
2018-11-27T13:41:51.620Z,35.95
2018-11-27T13:43:26.890Z,37.20
2018-11-27T13:45:00.952Z,38.92
2018-11-27T13:46:35.026Z,36.95
2018-11-27T13:48:08.967Z,36.93
2018-11-27T13:49:42.986Z,41.15
2018-11-27T13:51:17.117Z,39.42
2018-11-27T13:52:51.086Z,38.25
2018-11-27T13:54:25.299Z,38.75
2018-11-27T13:55:59.318Z,41.58
2018-11-27T13:57:33.362Z,39.92
2018-11-27T13:59:07.353Z,40.90
2018-11-27T14:00:41.332Z,37.55
2018-11-27T14:02:15.382Z,37.08
2018-11-27T14:03:49.496Z,37.45
2018-11-27T14:05:29.967Z,40.33
2018-11-27T14:07:04.073Z,35.43
2018-11-27T14:08:38.097Z,37.67
2018-11-27T14:10:12.703Z,39.88
2018-11-27T14:11:46.700Z,37.85
2018-11-27T14:13:20.784Z,35.00
2018-11-27T14:14:54.866Z,37.53
2018-11-27T14:16:28.866Z,36.03
2018-11-27T14:18:02.900Z,38.33
2018-11-27T14:19:36.974Z,37.93
2018-11-27T14:21:11.155Z,38.35
2018-11-27T14:22:46.552Z,35.73
2018-11-27T14:24:21.002Z,35.78
2018-11-27T14:25:55.035Z,36.85
2018-11-27T14:27:29.319Z,38.35
2018-11-27T14:29:03.515Z,37.85
2018-11-27T14:30:37.561Z,42.00
2018-11-27T14:32:11.649Z,33.23
2018-11-27T14:33:45.776Z,34.55
2018-11-27T14:35:20.648Z,37.13
2018-11-27T14:36:54.632Z,37.35
2018-11-27T14:38:29.337Z,38.53
2018-11-27T14:40:03.619Z,37.80
2018-11-27T14:41:37.694Z,37.38
2018-11-27T14:43:11.678Z,39.30
2018-11-27T14:44:45.681Z,38.58
2018-11-27T14:46:19.675Z,38.08
2018-11-27T14:47:54.891Z,41.08
2018-11-27T14:49:28.868Z,36.70
2018-11-27T14:51:02.822Z,49.53
2018-11-27T14:52:36.792Z,53.28
2018-11-27T14:54:10.846Z,43.35
2018-11-27T14:55:44.827Z,44.20
2018-11-27T14:57:18.801Z,43.78
2018-11-27T14:58:52.787Z,45.65
2018-11-27T15:00:27.344Z,42.27
2018-11-27T15:02:01.315Z,43.48
2018-11-27T15:03:35.286Z,39.60
2018-11-27T15:05:42.094Z,43.75
2018-11-27T15:07:16.030Z,42.73
2018-11-27T15:08:50.062Z,40.90
2018-11-27T15:10:24.061Z,41.80
2018-11-27T15:11:58.107Z,39.65
2018-11-27T15:13:32.087Z,41.08
2018-11-27T15:15:06.999Z,41.83
2018-11-27T15:16:40.953Z,41.25
2018-11-27T15:18:14.961Z,43.98
2018-11-27T15:19:48.997Z,43.17
2018-11-27T15:21:22.964Z,41.75
2018-11-27T15:22:56.951Z,39.75
2018-11-27T15:24:31.026Z,42.58
2018-11-27T15:26:05.014Z,42.83
2018-11-27T15:27:38.983Z,44.20
2018-11-27T15:29:12.954Z,40.00
2018-11-27T15:30:47.075Z,42.08
2018-11-27T15:32:21.081Z,43.70
2018-11-27T15:33:55.038Z,43.28
2018-11-27T15:35:29.103Z,41.68
2018-11-27T15:37:03.419Z,42.65
2018-11-27T15:38:37.367Z,39.92
2018-11-27T15:40:13.738Z,42.90
2018-11-27T15:41:47.692Z,42.98
2018-11-27T15:43:21.715Z,40.73
2018-11-27T15:44:55.686Z,37.95
2018-11-27T15:46:29.787Z,39.63
2018-11-27T15:48:05.154Z,40.43
2018-11-27T15:49:39.219Z,41.77
2018-11-27T15:51:13.215Z,42.88
2018-11-27T15:52:47.273Z,42.80
2018-11-27T15:54:21.325Z,44.90
2018-11-27T15:55:55.299Z,41.35
2018-11-27T15:57:29.278Z,40.00
2018-11-27T15:59:03.269Z,41.90
2018-11-27T16:00:37.301Z,39.18
2018-11-27T16:02:11.282Z,42.53
2018-11-27T16:03:45.232Z,42.03
2018-11-27T16:05:19.199Z,47.83
2018-11-27T16:06:53.262Z,43.85
2018-11-27T16:08:27.309Z,42.27
2018-11-27T16:10:01.375Z,40.43
2018-11-27T16:11:35.517Z,48.63
2018-11-27T16:13:09.554Z,43.60
2018-11-27T16:14:43.537Z,44.40
2018-11-27T16:16:17.507Z,44.13
2018-11-27T16:17:51.598Z,42.65
2018-11-27T16:19:25.639Z,42.20
2018-11-27T16:20:59.689Z,46.75
2018-11-27T16:22:33.653Z,41.95
2018-11-27T16:24:07.642Z,44.27
2018-11-27T16:25:41.625Z,43.98
2018-11-27T16:27:15.670Z,48.28
2018-11-27T16:28:50.554Z,44.90
2018-11-27T16:30:29.667Z,47.62
2018-11-27T16:32:03.622Z,44.33
2018-11-27T16:33:37.729Z,42.93
2018-11-27T16:35:12.522Z,42.00
2018-11-27T16:36:46.473Z,44.63
2018-11-27T16:38:20.497Z,45.92
2018-11-27T16:39:54.643Z,48.68
2018-11-27T16:41:28.671Z,44.73
2018-11-27T16:43:03.330Z,46.25
2018-11-27T16:44:37.254Z,44.65
2018-11-27T16:46:11.455Z,46.23
2018-11-27T16:47:45.648Z,42.62
2018-11-27T16:49:19.599Z,47.33
2018-11-27T16:50:53.570Z,48.52
2018-11-27T16:52:27.634Z,43.35
2018-11-27T16:54:01.625Z,47.55
2018-11-27T16:55:35.636Z,47.85
2018-11-27T16:57:09.620Z,49.88
2018-11-27T16:58:43.777Z,46.25
2018-11-27T17:00:20.697Z,46.58
2018-11-27T17:01:55.436Z,46.28
2018-11-27T17:03:29.385Z,49.08
2018-11-27T17:05:03.393Z,50.60
2018-11-27T17:06:37.513Z,48.65
2018-11-27T17:08:12.270Z,46.88
2018-11-27T17:09:46.189Z,48.38
2018-11-27T17:11:20.165Z,49.88
2018-11-27T17:12:56.356Z,45.73
2018-11-27T17:14:30.336Z,48.28
2018-11-27T17:16:04.312Z,51.15
2018-11-27T17:17:38.314Z,48.73
2018-11-27T17:19:12.517Z,51.00
2018-11-27T17:20:46.889Z,49.08
2018-11-27T17:22:21.154Z,51.23
2018-11-27T17:23:55.205Z,48.08
2018-11-27T17:25:29.125Z,46.95
2018-11-27T17:27:03.109Z,50.17
2018-11-27T17:28:37.091Z,51.18
2018-11-27T17:30:16.712Z,53.13
2018-11-27T17:31:50.709Z,52.65
2018-11-27T17:33:27.100Z,53.23
2018-11-27T17:35:01.068Z,54.45
2018-11-27T17:36:35.119Z,53.78
2018-11-27T17:38:09.918Z,51.20
2018-11-27T17:39:43.877Z,53.98
2018-11-27T17:41:17.918Z,56.20
2018-11-27T17:42:51.955Z,64.12
2018-11-27T17:44:25.885Z,61.18
2018-11-27T17:46:00.009Z,58.60
2018-11-27T17:47:33.939Z,56.05
2018-11-27T17:49:07.977Z,54.65
2018-11-27T17:50:41.929Z,58.13
2018-11-27T17:52:15.908Z,57.93
2018-11-27T17:53:49.977Z,53.63
2018-11-27T17:55:23.982Z,52.30
2018-11-27T17:56:57.932Z,56.33
2018-11-27T17:58:32.814Z,56.95
2018-11-27T18:00:26.779Z,54.13
2018-11-27T18:02:00.718Z,53.63
2018-11-27T18:03:34.660Z,59.38
2018-11-27T18:05:08.649Z,53.10
2018-11-27T18:06:42.702Z,56.42
2018-11-27T18:08:16.655Z,50.90
2018-11-27T18:09:50.813Z,48.05
2018-11-27T18:11:27.204Z,54.13
2018-11-27T18:13:01.178Z,57.35
2018-11-27T18:14:35.466Z,53.00
2018-11-27T18:16:09.418Z,57.65
2018-11-27T18:17:43.458Z,56.08
2018-11-27T18:19:17.527Z,56.08
2018-11-27T18:20:51.477Z,56.92
2018-11-27T18:22:25.381Z,53.28
2018-11-27T18:23:59.429Z,56.98
2018-11-27T18:25:33.347Z,54.08
2018-11-27T18:27:07.326Z,56.40
2018-11-27T18:28:41.553Z,55.30
2018-11-27T18:30:18.364Z,51.40
2018-11-27T18:31:52.620Z,51.70
2018-11-27T18:33:26.759Z,50.73
2018-11-27T18:35:01.073Z,53.28
2018-11-27T18:36:35.381Z,55.25
2018-11-27T18:38:09.363Z,57.75
2018-11-27T18:39:43.793Z,55.03
2018-11-27T18:41:17.828Z,54.23
2018-11-27T18:42:52.481Z,58.50
2018-11-27T18:44:26.095Z,58.45
2018-11-27T18:46:00.062Z,59.88
2018-11-27T18:47:34.012Z,57.20
2018-11-27T18:49:08.100Z,54.25
2018-11-27T18:50:42.153Z,57.65
2018-11-27T18:52:17.986Z,56.25
2018-11-27T18:53:55.108Z,57.13
2018-11-27T18:55:29.422Z,53.98
2018-11-27T18:57:03.380Z,57.67
2018-11-27T18:58:37.349Z,57.95
2018-11-27T19:00:23.855Z,57.53
2018-11-27T19:01:57.906Z,57.30
2018-11-27T19:03:31.841Z,58.38
2018-11-27T19:05:06.657Z,58.45
2018-11-27T19:06:40.630Z,60.48
2018-11-27T19:08:14.677Z,57.45
2018-11-27T19:09:55.257Z,52.73
2018-11-27T19:11:29.349Z,54.33
2018-11-27T19:13:03.310Z,60.80
2018-11-27T19:14:37.281Z,54.15
2018-11-27T19:16:11.203Z,52.62
2018-11-27T19:17:46.532Z,56.63
2018-11-27T19:19:20.449Z,58.68
2018-11-27T19:20:54.460Z,58.35
2018-11-27T19:22:28.407Z,57.35
2018-11-27T19:24:02.327Z,57.13
2018-11-27T19:25:36.273Z,56.20
2018-11-27T19:27:10.265Z,55.50
2018-11-27T19:28:44.170Z,53.95
2018-11-27T19:30:19.352Z,50.63
2018-11-27T19:31:53.261Z,46.92
2018-11-27T19:33:27.201Z,49.90
2018-11-27T19:35:01.133Z,54.98
2018-11-27T19:36:35.070Z,52.35
2018-11-27T19:38:11.342Z,48.60
2018-11-27T19:39:45.335Z,54.40
2018-11-27T19:41:19.251Z,50.35
2018-11-27T19:42:53.177Z,49.83
2018-11-27T19:44:27.078Z,48.05
2018-11-27T19:46:01.037Z,54.83
2018-11-27T19:47:35.407Z,53.92
2018-11-27T19:49:09.341Z,52.43
2018-11-27T19:50:43.243Z,47.58
2018-11-27T19:52:17.252Z,50.67
2018-11-27T19:53:51.142Z,48.78
2018-11-27T19:55:25.111Z,49.33
2018-11-27T19:56:59.049Z,48.23
2018-11-27T19:58:33.014Z,49.40
2018-11-27T20:00:11.387Z,52.73
2018-11-27T20:01:45.285Z,48.28
2018-11-27T20:03:19.205Z,49.40
2018-11-27T20:04:53.327Z,48.65
2018-11-27T20:06:27.269Z,47.40
2018-11-27T20:08:01.182Z,46.42
2018-11-27T20:09:35.114Z,45.73
2018-11-27T20:11:09.103Z,47.30
2018-11-27T20:12:43.051Z,52.25
2018-11-27T20:14:16.969Z,44.60
2018-11-27T20:15:50.950Z,46.42
2018-11-27T20:17:24.870Z,44.35